Time;durP1;ratioP1;P1;durP2;ratioP2;P2;SDS_P1;SDS_P2;PMS_P1;PMS_P2;Temp;Humidity;BMP_temperature;BMP_pressure;BME280_temperature;BME280_humidity;BME280_pressure;Samples;Min_cycle;Max_cycle;Signal;HPM_P1;HPM_P2
2023/10/07 00:02:15;;;;;;;14.55;4.35;;;17.80;99.90;;;;;;4994228;28;20045;-57
2023/10/07 00:04:44;;;;;;;16.67;4.55;;;17.90;99.90;;;;;;4988154;28;20118;-57
2023/10/07 00:07:10;;;;;;;18.00;5.57;;;17.90;99.90;;;;;;4989478;28;20508;-56
2023/10/07 00:09:41;;;;;;;16.77;4.75;;;17.90;99.90;;;;;;4992593;28;20564;-58
2023/10/07 00:12:15;;;;;;;14.10;4.95;;;17.90;99.90;;;;;;4987996;28;21565;-59
2023/10/07 00:14:41;;;;;;;16.30;4.95;;;17.90;99.90;;;;;;4978432;28;20034;-59
2023/10/07 00:17:17;;;;;;;22.92;5.82;;;17.90;99.90;;;;;;4995936;28;20046;-59
2023/10/07 00:19:47;;;;;;;23.55;5.97;;;17.90;99.90;;;;;;4986351;28;20061;-60
2023/10/07 00:22:14;;;;;;;16.48;4.80;;;17.90;99.90;;;;;;4972168;28;20214;-59
2023/10/07 00:24:45;;;;;;;18.08;4.85;;;17.90;99.90;;;;;;4987059;28;20100;-59
2023/10/07 00:27:26;;;;;;;19.05;5.03;;;17.90;99.90;;;;;;4989117;28;20159;-59
2023/10/07 00:29:58;;;;;;;17.38;4.43;;;17.90;99.90;;;;;;5002142;28;20041;-59
2023/10/07 00:32:32;;;;;;;20.15;5.32;;;17.90;99.90;;;;;;4989751;28;20041;-58
2023/10/07 00:35:01;;;;;;;17.35;4.82;;;17.80;99.90;;;;;;5012275;28;20137;-59
2023/10/07 00:37:30;;;;;;;17.75;5.70;;;17.80;99.90;;;;;;4988072;28;21484;-60
2023/10/07 00:40:14;;;;;;;20.92;5.63;;;17.80;99.90;;;;;;5005181;28;20037;-59
2023/10/07 00:42:47;;;;;;;20.80;5.60;;;17.70;99.90;;;;;;5003467;28;20058;-57
2023/10/07 00:45:14;;;;;;;20.00;4.90;;;17.70;99.90;;;;;;5003800;28;20405;-59
2023/10/07 00:47:42;;;;;;;23.20;6.15;;;17.70;99.90;;;;;;5002370;28;20049;-59
2023/10/07 00:50:11;;;;;;;15.35;5.35;;;17.70;99.90;;;;;;4982170;28;20080;-59
2023/10/07 00:52:55;;;;;;;17.75;4.97;;;17.70;99.90;;;;;;4991994;28;20055;-59
2023/10/07 00:55:31;;;;;;;13.75;4.47;;;17.70;99.90;;;;;;5000363;28;20045;-60
2023/10/07 01:00:43;;;;;;;18.58;5.43;;;17.70;99.90;;;;;;4996684;28;20130;-59
2023/10/07 01:08:34;;;;;;;20.02;5.13;;;17.80;99.90;;;;;;4998803;28;20119;-59
2023/10/07 01:13:56;;;;;;;18.23;4.85;;;17.80;99.90;;;;;;4997642;28;20054;-59
2023/10/07 01:16:34;;;;;;;16.75;4.65;;;17.80;99.90;;;;;;4996614;28;20056;-59
2023/10/07 01:19:52;;;;;;;19.17;4.47;;;17.80;99.90;;;;;;5010030;28;20054;-59
2023/10/07 01:21:55;;;;;;;12.07;4.20;;;17.80;99.90;;;;;;4990988;28;20041;-59
2023/10/07 01:27:06;;;;;;;15.52;4.93;;;17.80;99.90;;;;;;4995977;28;20053;-59
2023/10/07 01:29:34;;;;;;;16.75;5.28;;;17.80;99.90;;;;;;5001872;28;20095;-58
2023/10/07 01:32:00;;;;;;;17.05;4.70;;;17.80;99.90;;;;;;5012100;28;20041;-59
2023/10/07 01:34:30;;;;;;;16.15;4.38;;;17.80;99.90;;;;;;5005698;28;20038;-57
2023/10/07 01:37:01;;;;;;;18.00;5.72;;;17.80;99.90;;;;;;5003861;28;20073;-60
2023/10/07 01:39:40;;;;;;;15.18;4.93;;;17.80;99.90;;;;;;4994410;28;20096;-59
2023/10/07 01:42:07;;;;;;;19.13;5.00;;;17.70;99.90;;;;;;5001906;28;20077;-59
2023/10/07 01:44:38;;;;;;;14.68;4.43;;;17.80;99.90;;;;;;5004673;28;20124;-57
2023/10/07 01:47:16;;;;;;;16.73;5.10;;;17.80;99.90;;;;;;5001044;28;20041;-58
2023/10/07 01:49:43;;;;;;;14.73;4.07;;;17.70;99.90;;;;;;5003056;28;20071;-56
2023/10/07 01:52:09;;;;;;;14.73;4.03;;;17.70;99.90;;;;;;4984886;28;20140;-56
2023/10/07 01:54:35;;;;;;;19.48;5.00;;;17.80;99.90;;;;;;5004748;28;20046;-58
2023/10/07 01:57:04;;;;;;;17.92;4.78;;;17.80;99.90;;;;;;4988074;28;20046;-57
2023/10/07 01:59:30;;;;;;;10.45;3.85;;;17.80;99.90;;;;;;4987236;28;20077;-58
2023/10/07 02:02:06;;;;;;;14.88;4.32;;;17.70;99.90;;;;;;5003977;28;20132;-58
2023/10/07 02:04:32;;;;;;;17.90;5.18;;;17.80;99.90;;;;;;5004267;28;20053;-57
2023/10/07 02:06:58;;;;;;;18.60;4.40;;;17.80;99.90;;;;;;5002520;28;20595;-58
2023/10/07 02:09:29;;;;;;;15.82;4.10;;;17.80;99.90;;;;;;4998999;28;20050;-59
2023/10/07 02:12:09;;;;;;;15.27;4.53;;;17.80;99.90;;;;;;5000467;28;20177;-58
2023/10/07 02:14:36;;;;;;;14.45;4.63;;;17.70;99.90;;;;;;5019031;28;20112;-59
2023/10/07 02:17:03;;;;;;;17.02;4.32;;;17.80;99.90;;;;;;5001949;28;20116;-58
2023/10/07 02:19:29;;;;;;;17.13;4.45;;;17.80;99.90;;;;;;4999024;28;20517;-58
2023/10/07 02:22:00;;;;;;;11.85;3.97;;;17.70;99.90;;;;;;4975628;28;20629;-58
2023/10/07 02:24:30;;;;;;;16.35;5.15;;;17.70;99.90;;;;;;4983520;28;20064;-58
2023/10/07 02:26:59;;;;;;;18.63;4.00;;;17.80;99.90;;;;;;4958064;28;20046;-59
2023/10/07 02:29:27;;;;;;;16.33;4.57;;;17.80;99.90;;;;;;4996149;28;21275;-57
2023/10/07 02:32:05;;;;;;;16.80;4.80;;;17.80;99.90;;;;;;4996275;28;20488;-56
2023/10/07 02:34:33;;;;;;;17.27;4.20;;;17.80;99.90;;;;;;4993028;28;20542;-59
2023/10/07 02:37:12;;;;;;;18.38;4.97;;;17.80;99.90;;;;;;4996741;28;20528;-59
2023/10/07 02:39:46;;;;;;;16.67;4.65;;;17.80;99.90;;;;;;4997770;28;20042;-58
2023/10/07 02:42:21;;;;;;;15.50;5.13;;;17.80;99.90;;;;;;4984337;28;20042;-58
2023/10/07 02:45:00;;;;;;;18.27;4.60;;;17.80;99.90;;;;;;4994363;28;20609;-58
2023/10/07 02:47:30;;;;;;;13.40;3.90;;;17.80;99.90;;;;;;4995526;28;20389;-59
2023/10/07 02:50:00;;;;;;;14.50;4.15;;;17.70;99.90;;;;;;4996396;28;20524;-60
2023/10/07 02:52:38;;;;;;;15.48;5.00;;;17.70;99.90;;;;;;4996049;28;20045;-60
2023/10/07 02:57:47;;;;;;;17.88;6.10;;;17.70;99.90;;;;;;5005702;28;20476;-59
2023/10/07 03:00:35;;;;;;;14.95;4.80;;;17.70;99.90;;;;;;5004552;28;20164;-59
2023/10/07 03:05:45;;;;;;;16.33;4.85;;;17.70;99.90;;;;;;5004918;28;20057;-59
2023/10/07 03:08:19;;;;;;;19.70;5.28;;;17.80;99.90;;;;;;4997141;28;20496;-59
2023/10/07 03:11:03;;;;;;;17.92;4.45;;;17.80;99.90;;;;;;4980598;28;20312;-59
2023/10/07 03:13:37;;;;;;;;;;;17.80;99.90;;;;;;4998120;28;20037;-57
2023/10/07 03:16:10;;;;;;;24.77;5.95;;;17.80;99.90;;;;;;4996779;28;19935;-58
2023/10/07 03:18:38;;;;;;;12.18;4.18;;;17.80;99.90;;;;;;4995140;28;20416;-58
2023/10/07 03:21:10;;;;;;;17.77;4.57;;;17.80;99.90;;;;;;4993523;28;20813;-60
2023/10/07 03:23:48;;;;;;;12.73;4.30;;;17.80;99.90;;;;;;4999218;28;20050;-58
2023/10/07 03:26:20;;;;;;;18.60;5.60;;;17.80;99.90;;;;;;4996328;28;20037;-59
2023/10/07 03:28:55;;;;;;;15.63;4.10;;;17.80;99.90;;;;;;4996091;28;20054;-59
2023/10/07 03:31:29;;;;;;;18.25;4.75;;;17.80;99.90;;;;;;4996207;28;20056;-60
2023/10/07 03:33:58;;;;;;;;;;;17.80;99.90;;;;;;4997533;28;20049;-59
2023/10/07 03:41:36;;;;;;;16.80;5.35;;;17.80;99.90;;;;;;5000882;28;20046;-59
2023/10/07 03:44:02;;;;;;;14.93;4.10;;;17.80;99.90;;;;;;5000882;28;20343;-59
2023/10/07 03:46:28;;;;;;;15.50;4.40;;;17.80;99.90;;;;;;5004859;28;20571;-57
2023/10/07 03:48:55;;;;;;;18.80;4.95;;;17.80;99.90;;;;;;4998659;28;20038;-59
2023/10/07 03:51:22;;;;;;;22.13;5.20;;;17.80;99.90;;;;;;4986902;28;20132;-58
2023/10/07 03:53:54;;;;;;;16.23;4.28;;;17.80;99.90;;;;;;5000108;28;20037;-56
2023/10/07 03:56:20;;;;;;;17.98;5.00;;;17.80;99.90;;;;;;5004845;28;20480;-58
2023/10/07 03:58:47;;;;;;;17.73;4.28;;;17.80;99.90;;;;;;4996389;28;20042;-58
2023/10/07 04:01:17;;;;;;;16.42;4.20;;;17.80;99.90;;;;;;4996505;28;20061;-59
2023/10/07 04:03:49;;;;;;;15.27;4.80;;;17.80;99.90;;;;;;4994736;28;20123;-59
2023/10/07 04:06:30;;;;;;;22.35;5.10;;;17.80;99.90;;;;;;5005281;28;20034;-59
2023/10/07 04:09:05;;;;;;;20.00;5.22;;;17.80;99.90;;;;;;4994775;28;20045;-58
2023/10/07 04:11:36;;;;;;;17.70;5.03;;;17.80;99.90;;;;;;4994923;28;20781;-59
2023/10/07 04:14:19;;;;;;;16.63;5.55;;;17.80;99.90;;;;;;4993141;28;20092;-59
2023/10/07 04:16:52;;;;;;;17.00;4.13;;;17.80;99.90;;;;;;4995076;28;20063;-58
2023/10/07 04:21:45;;;;;;;17.55;4.25;;;17.80;99.90;;;;;;4992931;28;20393;-59
2023/10/07 04:24:12;;;;;;;17.15;4.10;;;17.70;99.90;;;;;;4970214;28;20046;-58
2023/10/07 04:26:51;;;;;;;17.45;4.50;;;17.70;99.90;;;;;;4993776;28;20050;-59
2023/10/07 04:29:17;;;;;;;15.45;4.15;;;17.70;99.90;;;;;;4993375;28;20137;-59
2023/10/07 04:31:47;;;;;;;11.88;3.90;;;17.80;99.90;;;;;;4991231;28;20038;-59
2023/10/07 04:34:17;;;;;;;18.85;4.38;;;17.80;99.90;;;;;;4986173;28;20045;-59
2023/10/07 04:37:11;;;;;;;21.88;4.80;;;17.80;99.90;;;;;;4989998;28;20049;-58
2023/10/07 04:42:38;;;;;;;15.32;4.80;;;17.80;99.90;;;;;;4995357;28;20388;-59
2023/10/07 04:45:35;;;;;;;17.00;5.70;;;17.70;99.90;;;;;;4996197;28;20081;-59
2023/10/07 04:48:23;;;;;;;17.42;5.07;;;17.70;99.90;;;;;;4994638;28;20088;-60
2023/10/07 04:51:02;;;;;;;18.77;4.38;;;17.70;99.90;;;;;;4992681;28;20049;-58
2023/10/07 04:53:37;;;;;;;17.35;4.53;;;17.80;99.90;;;;;;4979236;28;20049;-59
2023/10/07 04:56:07;;;;;;;15.38;4.15;;;17.70;99.90;;;;;;4993779;28;20050;-59
2023/10/07 04:58:33;;;;;;;15.52;3.78;;;17.70;99.90;;;;;;4994941;28;20505;-58
2023/10/07 05:01:06;;;;;;;17.48;5.05;;;17.70;99.90;;;;;;4976462;28;20042;-58
2023/10/07 05:03:31;;;;;;;18.63;4.78;;;17.70;99.90;;;;;;4999255;28;20118;-59
2023/10/07 05:05:58;;;;;;;18.02;4.40;;;17.70;99.90;;;;;;5001362;28;20058;-59
2023/10/07 05:08:27;;;;;;;20.40;5.25;;;17.70;99.90;;;;;;5000039;28;20053;-58
2023/10/07 05:11:04;;;;;;;17.75;4.00;;;17.70;99.90;;;;;;4996805;28;20504;-57
2023/10/07 05:13:34;;;;;;;15.73;4.10;;;17.70;99.90;;;;;;4995128;28;20050;-59
2023/10/07 05:16:05;;;;;;;20.67;5.15;;;17.70;99.90;;;;;;5000447;28;20464;-57
2023/10/07 05:18:31;;;;;;;15.00;4.00;;;17.70;99.90;;;;;;4996281;28;20044;-59
2023/10/07 05:20:57;;;;;;;17.17;4.25;;;17.70;99.90;;;;;;4993795;28;20042;-60
2023/10/07 05:23:23;;;;;;;15.35;3.97;;;17.70;99.90;;;;;;4961897;28;20033;-59
2023/10/07 05:25:49;;;;;;;17.80;4.50;;;17.70;99.90;;;;;;4994266;28;20529;-58
2023/10/07 05:28:20;;;;;;;15.90;4.72;;;17.70;99.90;;;;;;4991420;28;20057;-59
2023/10/07 05:30:52;;;;;;;14.93;4.03;;;17.60;99.90;;;;;;4990496;28;20131;-58
2023/10/07 05:33:25;;;;;;;13.85;3.88;;;17.70;99.90;;;;;;4992991;28;20456;-59
2023/10/07 05:36:11;;;;;;;18.48;5.35;;;17.60;99.90;;;;;;4976970;28;20057;-59
2023/10/07 05:38:42;;;;;;;22.45;5.13;;;17.60;99.90;;;;;;4994123;28;20677;-60
2023/10/07 05:41:12;;;;;;;13.95;3.92;;;17.60;99.90;;;;;;4992544;28;20081;-58
2023/10/07 05:43:43;;;;;;;17.90;4.65;;;17.60;99.90;;;;;;4994312;28;20133;-59
2023/10/07 05:46:12;;;;;;;13.40;4.00;;;17.60;99.90;;;;;;4993510;28;20042;-59
2023/10/07 05:48:40;;;;;;;14.55;4.25;;;17.60;99.90;;;;;;4999206;28;20896;-59
2023/10/07 05:51:09;;;;;;;13.18;3.97;;;17.60;99.90;;;;;;4976591;28;20048;-59
2023/10/07 05:53:39;;;;;;;14.38;3.85;;;17.60;99.90;;;;;;4973917;28;20065;-59
2023/10/07 05:56:06;;;;;;;14.20;3.70;;;17.60;99.90;;;;;;4991911;28;20060;-58
2023/10/07 05:58:37;;;;;;;16.05;4.03;;;17.60;99.90;;;;;;4991863;28;20133;-58
2023/10/07 06:01:03;;;;;;;11.63;3.63;;;17.50;99.90;;;;;;4978113;28;20034;-58
2023/10/07 06:03:30;;;;;;;13.90;3.88;;;17.60;99.90;;;;;;4996637;28;20579;-57
2023/10/07 06:05:59;;;;;;;15.18;3.45;;;17.60;99.90;;;;;;4998210;28;20042;-59
2023/10/07 06:08:29;;;;;;;10.82;3.65;;;17.50;99.90;;;;;;4994967;28;20319;-58
2023/10/07 06:10:59;;;;;;;16.50;4.00;;;17.50;99.90;;;;;;4997960;28;20468;-57
2023/10/07 06:13:28;;;;;;;15.15;3.88;;;17.50;99.90;;;;;;5004723;28;20074;-57
2023/10/07 06:15:55;;;;;;;12.00;3.83;;;17.60;99.90;;;;;;5000665;28;20041;-56
2023/10/07 06:18:22;;;;;;;11.48;3.58;;;17.60;99.90;;;;;;4995034;28;20804;-57
2023/10/07 06:20:50;;;;;;;13.40;3.28;;;17.60;99.90;;;;;;4998345;28;20057;-56
2023/10/07 06:23:24;;;;;;;12.13;4.00;;;17.50;99.90;;;;;;4987119;28;20049;-57
2023/10/07 06:25:51;;;;;;;16.00;4.27;;;17.50;99.90;;;;;;4998316;28;20050;-57
2023/10/07 06:31:10;;;;;;;15.48;3.75;;;17.50;99.90;;;;;;4979534;28;20045;-57
2023/10/07 06:34:00;;;;;;;17.60;4.07;;;17.50;99.90;;;;;;4997777;28;20460;-55
2023/10/07 06:36:30;;;;;;;13.18;3.80;;;17.50;99.90;;;;;;4995708;28;20041;-57
2023/10/07 06:39:01;;;;;;;15.02;4.20;;;17.50;99.90;;;;;;4987199;28;20129;-57
2023/10/07 06:41:29;;;;;;;12.90;4.45;;;17.50;99.90;;;;;;4994421;28;20528;-56
2023/10/07 06:44:08;;;;;;;12.30;4.20;;;17.50;99.90;;;;;;5000034;28;20050;-57
2023/10/07 06:46:40;;;;;;;13.55;5.00;;;17.50;99.90;;;;;;4998383;28;20042;-56
2023/10/07 06:49:17;;;;;;;12.82;3.97;;;17.50;99.90;;;;;;4995324;28;20154;-56
2023/10/07 06:51:44;;;;;;;10.90;3.60;;;17.50;99.90;;;;;;4983056;28;20080;-55
2023/10/07 06:54:10;;;;;;;16.70;4.75;;;17.50;99.90;;;;;;5000536;28;20038;-57
2023/10/07 06:56:36;;;;;;;15.20;4.28;;;17.50;99.90;;;;;;4978557;28;20096;-56
2023/10/07 06:59:03;;;;;;;15.20;3.85;;;17.50;99.90;;;;;;4995136;28;20041;-56
2023/10/07 07:04:14;;;;;;;13.13;4.18;;;17.50;99.90;;;;;;4993193;28;20267;-57
2023/10/07 07:06:44;;;;;;;13.70;3.83;;;17.50;99.90;;;;;;4993615;28;20042;-57
2023/10/07 07:12:04;;;;;;;14.35;3.92;;;17.50;99.90;;;;;;4978577;28;20046;-54
2023/10/07 07:14:33;;;;;;;15.88;4.03;;;17.60;99.90;;;;;;4978382;28;20046;-57
2023/10/07 07:22:33;;;;;;;7.68;3.38;;;17.60;99.90;;;;;;4996274;28;20050;-57
2023/10/07 07:25:04;;;;;;;16.65;3.70;;;17.60;99.90;;;;;;4993311;28;20045;-57
2023/10/07 07:27:34;;;;;;;15.10;4.43;;;17.70;99.90;;;;;;5001602;28;20555;-57
2023/10/07 07:30:03;;;;;;;14.93;4.65;;;17.70;99.90;;;;;;4995425;28;20054;-58
2023/10/07 07:32:33;;;;;;;12.68;4.15;;;17.70;99.90;;;;;;4997544;28;20401;-59
2023/10/07 07:35:05;;;;;;;13.27;4.43;;;17.70;99.90;;;;;;4999933;28;20038;-60
2023/10/07 07:37:34;;;;;;;12.55;3.85;;;17.70;99.90;;;;;;4985140;28;20045;-59
2023/10/07 07:40:09;;;;;;;16.00;4.70;;;17.80;99.90;;;;;;5000516;28;20057;-60
2023/10/07 07:42:35;;;;;;;19.27;4.90;;;17.80;99.90;;;;;;5011465;28;20125;-59
2023/10/07 07:45:14;;;;;;;12.65;4.00;;;17.80;99.90;;;;;;5001783;28;20133;-60
2023/10/07 07:47:41;;;;;;;17.33;4.05;;;17.80;99.90;;;;;;4997688;28;20126;-60
2023/10/07 07:50:08;;;;;;;17.85;4.60;;;17.80;99.90;;;;;;4979889;28;20050;-58
2023/10/07 07:52:34;;;;;;;12.05;4.13;;;17.80;99.90;;;;;;5001610;28;20046;-56
2023/10/07 07:55:00;;;;;;;19.48;4.97;;;17.90;99.90;;;;;;5002319;28;20046;-59
2023/10/07 07:57:27;;;;;;;18.40;5.03;;;17.90;99.90;;;;;;4999119;28;20050;-60
2023/10/07 07:59:53;;;;;;;15.10;4.13;;;17.90;99.90;;;;;;4981644;28;20061;-58
2023/10/07 08:02:24;;;;;;;15.63;4.43;;;17.90;99.90;;;;;;4996798;28;20395;-57
2023/10/07 08:04:50;;;;;;;17.80;4.60;;;17.90;99.90;;;;;;5000716;28;20045;-56
2023/10/07 08:07:27;;;;;;;14.57;4.88;;;17.90;99.90;;;;;;4999137;28;20086;-59
2023/10/07 08:09:57;;;;;;;12.45;3.85;;;17.90;99.90;;;;;;4994706;28;20054;-60
2023/10/07 08:12:33;;;;;;;18.30;4.78;;;17.90;99.90;;;;;;4992400;28;20038;-59
2023/10/07 08:15:04;;;;;;;18.50;4.93;;;17.90;99.90;;;;;;4995587;28;20046;-59
2023/10/07 08:17:30;;;;;;;16.83;4.68;;;17.90;99.90;;;;;;5004367;28;20042;-58
2023/10/07 08:19:57;;;;;;;15.82;4.88;;;17.90;99.90;;;;;;4996876;28;20042;-58
2023/10/07 08:22:27;;;;;;;15.73;4.47;;;18.00;99.90;;;;;;4998987;28;20394;-58
2023/10/07 08:24:53;;;;;;;15.25;4.30;;;18.00;99.90;;;;;;4994401;28;20502;-59
2023/10/07 08:30:07;;;;;;;18.73;5.20;;;18.00;99.90;;;;;;4994117;28;20163;-58
2023/10/07 08:32:41;;;;;;;20.45;5.55;;;18.10;99.90;;;;;;5000635;28;20056;-59
2023/10/07 08:35:14;;;;;;;17.83;5.18;;;18.10;99.90;;;;;;5000663;28;20445;-59
2023/10/07 08:37:47;;;;;;;15.40;4.30;;;18.10;99.90;;;;;;4999816;28;20042;-60
2023/10/07 08:40:26;;;;;;;14.95;4.50;;;18.10;99.90;;;;;;5002293;28;20107;-58
2023/10/07 08:43:04;;;;;;;19.70;4.72;;;18.10;99.90;;;;;;4994625;28;20095;-58
2023/10/07 08:45:32;;;;;;;16.83;4.95;;;18.20;99.90;;;;;;4999905;28;20079;-57
2023/10/07 08:50:55;;;;;;;17.30;5.25;;;18.10;99.90;;;;;;5000346;28;20057;-59
2023/10/07 08:53:24;;;;;;;17.17;5.15;;;18.10;99.90;;;;;;4997467;28;20065;-60
2023/10/07 08:55:54;;;;;;;16.70;5.05;;;18.10;99.90;;;;;;4997247;28;20429;-58
2023/10/07 08:58:27;;;;;;;18.00;5.47;;;18.10;99.90;;;;;;5015859;28;20109;-60
2023/10/07 09:00:55;;;;;;;16.33;5.65;;;18.20;99.90;;;;;;4993345;28;20052;-59
2023/10/07 09:03:26;;;;;;;20.60;5.75;;;18.30;99.90;;;;;;4998440;28;20042;-60
2023/10/07 09:05:59;;;;;;;15.32;5.07;;;18.20;99.90;;;;;;5002559;28;20030;-60
2023/10/07 09:08:25;;;;;;;23.85;5.50;;;18.30;99.90;;;;;;4993850;28;20409;-60
2023/10/07 09:10:55;;;;;;;17.15;5.47;;;18.30;99.90;;;;;;4998567;28;20122;-60
2023/10/07 09:13:27;;;;;;;21.05;6.75;;;18.40;99.90;;;;;;5001308;28;20135;-59
2023/10/07 09:15:59;;;;;;;19.55;5.47;;;18.40;99.90;;;;;;5000269;28;20512;-59
2023/10/07 09:18:31;;;;;;;20.30;5.83;;;18.40;99.90;;;;;;4983252;28;20045;-60
2023/10/07 09:20:57;;;;;;;15.73;5.20;;;18.40;99.90;;;;;;4992681;28;20050;-60
2023/10/07 09:23:47;;;;;;;15.98;5.50;;;18.40;99.90;;;;;;4994942;28;20034;-60
2023/10/07 09:26:21;;;;;;;15.07;5.13;;;18.40;99.90;;;;;;4994105;28;20397;-60
2023/10/07 09:29:14;;;;;;;17.17;4.95;;;18.40;99.90;;;;;;5000661;28;20045;-60
2023/10/07 09:31:41;;;;;;;13.48;5.20;;;18.40;99.90;;;;;;5000265;28;20040;-60
2023/10/07 09:34:10;;;;;;;19.52;5.38;;;18.40;99.90;;;;;;5002218;28;20039;-59
2023/10/07 09:36:40;;;;;;;16.48;5.20;;;18.40;99.90;;;;;;4995970;28;20045;-59
2023/10/07 09:41:38;;;;;;;14.00;5.63;;;18.40;99.90;;;;;;4996664;28;20738;-59
2023/10/07 09:44:20;;;;;;;16.73;5.68;;;18.40;99.90;;;;;;5000592;28;20045;-59
2023/10/07 09:46:46;;;;;;;18.13;5.15;;;18.40;99.90;;;;;;4993669;28;20050;-59
2023/10/07 09:49:15;;;;;;;13.25;4.93;;;18.40;99.90;;;;;;4995385;28;20053;-59
2023/10/07 09:51:47;;;;;;;14.93;5.05;;;18.40;99.90;;;;;;4993730;28;20513;-59
2023/10/07 09:54:36;;;;;;;15.10;5.55;;;18.40;99.90;;;;;;4979173;28;20069;-60
2023/10/07 09:57:32;;;;;;;21.52;5.80;;;18.40;99.90;;;;;;4977522;28;20037;-60
2023/10/07 10:03:12;;;;;;;19.23;5.30;;;18.40;99.90;;;;;;4995991;28;20408;-59
2023/10/07 10:06:06;;;;;;;17.27;5.30;;;18.40;99.90;;;;;;4984034;28;20042;-60
2023/10/07 10:08:56;;;;;;;;;;;18.40;99.90;;;;;;4966847;28;20095;-59
2023/10/07 10:11:31;;;;;;;16.65;5.28;;;18.50;99.90;;;;;;4994034;28;19917;-59
2023/10/07 10:16:59;;;;;;;17.00;5.38;;;18.40;99.90;;;;;;4997155;28;20434;-57
2023/10/07 10:19:47;;;;;;;16.48;5.03;;;18.40;99.90;;;;;;4994844;28;20145;-59
2023/10/07 10:22:22;;;;;;;12.50;5.30;;;18.40;99.90;;;;;;4993293;28;20041;-60
2023/10/07 10:24:55;;;;;;;13.55;4.57;;;18.40;99.90;;;;;;4997052;28;20069;-59
2023/10/07 10:27:21;;;;;;;15.07;5.00;;;18.40;99.90;;;;;;4976855;28;20539;-59
2023/10/07 10:30:06;;;;;;;16.35;5.30;;;18.50;99.90;;;;;;4994606;28;20823;-58
2023/10/07 10:32:36;;;;;;;16.63;5.75;;;18.60;99.90;;;;;;4981781;28;20034;-59
2023/10/07 10:35:06;;;;;;;16.52;5.22;;;18.60;99.90;;;;;;5000769;28;20042;-59
2023/10/07 10:37:34;;;;;;;14.80;5.18;;;18.60;99.90;;;;;;5000559;28;20038;-60
2023/10/07 10:40:12;;;;;;;15.57;4.93;;;18.50;99.90;;;;;;4997586;28;20046;-60
2023/10/07 10:42:42;;;;;;;14.98;5.55;;;18.60;99.90;;;;;;5000095;28;20057;-60
2023/10/07 10:45:41;;;;;;;16.70;4.70;;;18.70;99.90;;;;;;4995611;28;20231;-60
2023/10/07 10:48:08;;;;;;;15.38;5.45;;;18.70;99.90;;;;;;5016189;28;20139;-57
2023/10/07 10:50:34;;;;;;;14.48;4.80;;;18.70;99.90;;;;;;5001341;28;20465;-60
2023/10/07 10:53:00;;;;;;;17.02;4.95;;;18.70;99.90;;;;;;5003388;28;20049;-59
2023/10/07 10:55:34;;;;;;;14.38;5.10;;;18.70;99.90;;;;;;5002587;28;20034;-57
2023/10/07 10:58:00;;;;;;;17.50;4.95;;;18.70;99.90;;;;;;5001304;28;20382;-59
2023/10/07 11:00:25;;;;;;;13.18;5.03;;;18.70;99.90;;;;;;4982524;28;20044;-59
2023/10/07 11:02:53;;;;;;;13.18;4.68;;;18.70;99.90;;;;;;4997428;28;20149;-59
2023/10/07 11:05:22;;;;;;;17.05;5.10;;;18.80;99.90;;;;;;5001284;28;20485;-58
2023/10/07 11:07:50;;;;;;;16.77;5.68;;;18.80;99.90;;;;;;5003328;28;20049;-59
2023/10/07 11:10:22;;;;;;;16.80;4.80;;;18.80;99.90;;;;;;5003211;28;20081;-60
2023/10/07 11:12:56;;;;;;;16.95;5.43;;;18.70;99.90;;;;;;5009709;28;20073;-59
2023/10/07 11:15:26;;;;;;;13.80;5.25;;;18.70;99.90;;;;;;5000557;28;20137;-60
2023/10/07 11:18:19;;;;;;;18.25;6.13;;;18.90;99.90;;;;;;4998698;28;20601;-59
2023/10/07 11:20:43;;;;;;;13.30;5.10;;;18.90;99.90;;;;;;5001724;28;20056;-56
2023/10/07 11:23:10;;;;;;;15.35;5.10;;;18.90;99.90;;;;;;5001108;28;20042;-59
2023/10/07 11:25:36;;;;;;;17.10;5.35;;;19.00;99.90;;;;;;5004938;28;20045;-59
2023/10/07 11:28:09;;;;;;;14.85;5.57;;;18.90;99.90;;;;;;4987982;28;20048;-57
2023/10/07 11:30:48;;;;;;;14.38;4.85;;;18.90;99.90;;;;;;4999610;28;20042;-60
2023/10/07 11:33:18;;;;;;;12.90;4.65;;;18.90;99.90;;;;;;5005232;28;20414;-56
2023/10/07 11:35:46;;;;;;;16.95;4.75;;;18.90;99.90;;;;;;4999928;28;20127;-59
2023/10/07 11:38:13;;;;;;;13.85;4.97;;;18.90;99.90;;;;;;5001175;28;20048;-59
2023/10/07 11:40:39;;;;;;;19.73;6.15;;;19.10;99.90;;;;;;4987563;28;20085;-59
2023/10/07 11:43:11;;;;;;;16.35;5.05;;;19.10;99.90;;;;;;5000179;28;20042;-59
2023/10/07 11:45:37;;;;;;;17.58;5.07;;;19.10;99.90;;;;;;4996854;28;20097;-56
2023/10/07 11:48:05;;;;;;;12.98;5.53;;;19.20;99.90;;;;;;5001001;28;20518;-58
2023/10/07 11:50:34;;;;;;;11.02;4.60;;;19.20;99.90;;;;;;5006505;28;20416;-59
2023/10/07 11:53:02;;;;;;;16.48;5.40;;;19.10;99.90;;;;;;4998492;28;20489;-56
2023/10/07 11:55:29;;;;;;;16.25;5.97;;;19.00;99.90;;;;;;4998725;28;20493;-58
2023/10/07 11:57:54;;;;;;;12.65;5.20;;;18.90;99.90;;;;;;4983800;28;20508;-59
2023/10/07 12:00:23;;;;;;;18.30;6.25;;;18.90;99.90;;;;;;5004100;28;20042;-59
2023/10/07 12:02:50;;;;;;;17.25;5.30;;;18.90;99.90;;;;;;4982667;28;20100;-59
2023/10/07 12:05:17;;;;;;;20.02;6.65;;;18.90;99.90;;;;;;5008466;28;20512;-58
2023/10/07 12:07:47;;;;;;;14.30;4.88;;;18.80;99.90;;;;;;4990989;28;20046;-59
2023/10/07 12:10:16;;;;;;;16.38;5.13;;;18.90;99.90;;;;;;5003286;28;20057;-57
2023/10/07 12:12:42;;;;;;;14.57;5.82;;;18.70;99.90;;;;;;5007215;28;20057;-59
2023/10/07 12:15:15;;;;;;;14.25;4.47;;;18.60;99.90;;;;;;5006736;28;20092;-59
2023/10/07 12:17:45;;;;;;;15.60;5.55;;;18.60;99.90;;;;;;5002982;28;20070;-60
2023/10/07 12:20:15;;;;;;;13.85;4.85;;;18.60;99.90;;;;;;5007910;28;20034;-59
2023/10/07 12:22:42;;;;;;;17.75;5.13;;;18.60;99.90;;;;;;5009013;28;20041;-60
2023/10/07 12:25:18;;;;;;;17.40;5.18;;;18.70;99.90;;;;;;5006194;28;20128;-57
2023/10/07 12:27:45;;;;;;;16.98;4.85;;;18.70;99.90;;;;;;4990230;28;20117;-58
2023/10/07 12:30:14;;;;;;;16.98;5.18;;;18.70;99.90;;;;;;4989887;28;20042;-58
2023/10/07 12:32:41;;;;;;;14.32;5.47;;;18.70;99.90;;;;;;4989979;28;20045;-59
2023/10/07 12:35:10;;;;;;;12.73;4.90;;;18.80;99.90;;;;;;5008841;28;20057;-59
2023/10/07 12:37:46;;;;;;;21.83;5.40;;;18.80;99.90;;;;;;5006875;28;20064;-60
2023/10/07 12:40:14;;;;;;;16.00;5.25;;;18.80;99.90;;;;;;5004514;28;20049;-60
2023/10/07 12:42:44;;;;;;;22.23;5.03;;;18.70;99.90;;;;;;5004629;28;20533;-59
2023/10/07 12:45:11;;;;;;;17.38;5.28;;;18.70;99.90;;;;;;4988255;28;20518;-58
2023/10/07 12:47:39;;;;;;;13.18;4.97;;;18.60;99.90;;;;;;5005845;28;20085;-58
2023/10/07 12:50:26;;;;;;;16.83;5.45;;;18.50;99.90;;;;;;5009407;28;20037;-60
2023/10/07 12:52:55;;;;;;;21.02;4.90;;;18.50;99.90;;;;;;4988907;28;20038;-60
2023/10/07 12:55:21;;;;;;;14.40;5.43;;;18.40;99.90;;;;;;4985148;28;20124;-58
2023/10/07 12:57:49;;;;;;;18.77;5.38;;;18.40;99.90;;;;;;4988692;28;20045;-60
2023/10/07 13:00:19;;;;;;;18.15;5.25;;;18.40;99.90;;;;;;5007010;28;20120;-59
2023/10/07 13:02:47;;;;;;;16.45;5.40;;;18.40;99.90;;;;;;5003074;28;20532;-60
2023/10/07 13:05:18;;;;;;;14.57;5.22;;;18.40;99.90;;;;;;5004617;28;20048;-58
2023/10/07 13:08:02;;;;;;;15.63;5.00;;;18.40;99.90;;;;;;5001361;28;20548;-58
2023/10/07 13:10:28;;;;;;;14.85;4.95;;;18.40;99.90;;;;;;5001925;28;20542;-60
2023/10/07 13:12:58;;;;;;;13.57;5.25;;;18.40;99.90;;;;;;5003378;28;20044;-59
2023/10/07 13:15:30;;;;;;;18.00;5.85;;;18.30;99.90;;;;;;5006841;28;20037;-60
2023/10/07 13:17:58;;;;;;;13.65;4.95;;;18.30;99.90;;;;;;5014476;28;20041;-59
2023/10/07 13:20:26;;;;;;;17.92;5.60;;;18.20;99.90;;;;;;5002340;28;20054;-60
2023/10/07 13:22:54;;;;;;;18.00;6.10;;;18.20;99.90;;;;;;5002681;28;20042;-60
2023/10/07 13:25:21;;;;;;;17.27;5.60;;;18.20;99.90;;;;;;5011428;28;20069;-59
2023/10/07 13:27:48;;;;;;;14.95;4.75;;;18.20;99.90;;;;;;4988186;28;20099;-60
2023/10/07 13:30:16;;;;;;;15.82;4.95;;;18.30;99.90;;;;;;4997221;28;20125;-60
2023/10/07 13:32:46;;;;;;;15.27;5.30;;;18.30;99.90;;;;;;4981202;28;20038;-59
2023/10/07 13:35:15;;;;;;;13.20;5.45;;;18.30;99.90;;;;;;5003118;28;20131;-59
2023/10/07 13:37:45;;;;;;;14.05;6.70;;;18.30;99.90;;;;;;5003405;28;20129;-60
2023/10/07 13:40:17;;;;;;;15.93;5.15;;;18.10;99.90;;;;;;5007481;28;20041;-58
2023/10/07 13:42:51;;;;;;;19.77;6.22;;;18.20;99.90;;;;;;5005138;28;20064;-59
2023/10/07 13:45:22;;;;;;;18.27;5.63;;;18.10;99.90;;;;;;5005815;28;20133;-59
2023/10/07 13:47:52;;;;;;;11.52;5.13;;;18.10;99.90;;;;;;5003793;28;20068;-59
2023/10/07 13:50:25;;;;;;;12.45;5.15;;;18.10;99.90;;;;;;5001186;28;20125;-59
2023/10/07 13:52:59;;;;;;;12.55;6.13;;;18.10;99.90;;;;;;4990694;28;20505;-59
2023/10/07 13:55:33;;;;;;;15.55;5.57;;;18.10;99.90;;;;;;4995656;28;20409;-59
2023/10/07 13:58:04;;;;;;;13.57;5.45;;;18.10;99.90;;;;;;5016136;23;20202;-57